Aviation Digital Data Service (ADDS)

Output produced by METARs form (1712 UTC 23 September 2020)
found at http://aviationweather.gov/metar/data/
 
KGGG 231143Z 2312/2412 03004KT P6SM OVC002 
     TEMPO 2312/2315 1/2SM -DZ FG OVC001 
     FM231500 04009KT 1/4SM FG OVC004 
     FM232100 03011KT P6SM OVC007 
     FM240000 01008KT P6SM OVC015